Terminal Aerodrome Forecast
Issued by NWS

Home | Current Version | Previous Version | Graphics & Text | Print | Product List | Glossary On
Versions: 1 2 3 4 5 6 7 8 9 10 11 12 13 14 15 16 17
000
FTUS43 KMPX 291400 AAA
TAFAXN
TAF AMD
KAXN 291417Z 2914/3012 27004KT 6SM -SHRA BR BKN005 BKN015 OVC040
      TEMPO 2914/2916 2SM -SHRA BR BKN004
     FM291700 28003KT 6SM -SHRA BR BKN008 OVC025
     FM291800 29003KT P6SM BKN015 OVC090
     FM292100 35003KT P6SM SCT025 BKN060
     FM300400 01005KT 6SM BR SCT008 OVC015
     FM300800 36006KT 3SM BR SCT004 OVC007=

USA.gov is the U.S. government's official web portal to all federal, state and local government web resources and services.